sensor_id;sensor_type;location;lat;lon;timestamp;P1;durP1;ratioP1;P2;durP2;ratioP2
8050;SDS011;4068;42.158;24.732;2023-05-29T00:01:31;8.20;;;5.25;;
8050;SDS011;4068;42.158;24.732;2023-05-29T00:03:56;6.72;;;4.35;;
8050;SDS011;4068;42.158;24.732;2023-05-29T00:06:22;9.18;;;4.63;;
8050;SDS011;4068;42.158;24.732;2023-05-29T00:08:48;8.45;;;5.03;;
8050;SDS011;4068;42.158;24.732;2023-05-29T00:11:13;6.35;;;4.43;;
8050;SDS011;4068;42.158;24.732;2023-05-29T00:13:39;9.02;;;5.00;;
8050;SDS011;4068;42.158;24.732;2023-05-29T00:16:05;6.30;;;4.55;;
8050;SDS011;4068;42.158;24.732;2023-05-29T00:18:30;7.75;;;4.32;;
8050;SDS011;4068;42.158;24.732;2023-05-29T00:20:56;12.45;;;4.60;;
8050;SDS011;4068;42.158;24.732;2023-05-29T00:23:21;6.72;;;4.60;;
8050;SDS011;4068;42.158;24.732;2023-05-29T00:25:47;5.90;;;4.38;;
8050;SDS011;4068;42.158;24.732;2023-05-29T00:28:12;6.60;;;4.10;;
8050;SDS011;4068;42.158;24.732;2023-05-29T00:30:38;11.30;;;4.95;;
8050;SDS011;4068;42.158;24.732;2023-05-29T00:33:04;7.05;;;4.20;;
8050;SDS011;4068;42.158;24.732;2023-05-29T00:35:30;8.35;;;4.85;;
8050;SDS011;4068;42.158;24.732;2023-05-29T00:37:55;5.57;;;4.50;;
8050;SDS011;4068;42.158;24.732;2023-05-29T00:40:21;8.95;;;5.28;;
8050;SDS011;4068;42.158;24.732;2023-05-29T00:42:46;11.30;;;4.80;;
8050;SDS011;4068;42.158;24.732;2023-05-29T00:45:12;7.97;;;6.20;;
8050;SDS011;4068;42.158;24.732;2023-05-29T00:47:38;9.50;;;5.55;;
8050;SDS011;4068;42.158;24.732;2023-05-29T00:50:05;9.05;;;5.70;;
8050;SDS011;4068;42.158;24.732;2023-05-29T00:52:31;12.05;;;6.82;;
8050;SDS011;4068;42.158;24.732;2023-05-29T00:54:57;9.18;;;5.80;;
8050;SDS011;4068;42.158;24.732;2023-05-29T00:57:27;9.52;;;6.72;;
8050;SDS011;4068;42.158;24.732;2023-05-29T00:59:53;8.70;;;6.28;;
8050;SDS011;4068;42.158;24.732;2023-05-29T01:02:19;17.27;;;6.47;;
8050;SDS011;4068;42.158;24.732;2023-05-29T01:04:45;9.68;;;6.72;;
8050;SDS011;4068;42.158;24.732;2023-05-29T01:07:11;17.10;;;6.55;;
8050;SDS011;4068;42.158;24.732;2023-05-29T01:09:37;12.73;;;7.25;;
8050;SDS011;4068;42.158;24.732;2023-05-29T01:20:41;10.40;;;5.75;;
8050;SDS011;4068;42.158;24.732;2023-05-29T01:29:06;8.38;;;4.88;;
8050;SDS011;4068;42.158;24.732;2023-05-29T01:31:33;9.57;;;5.50;;
8050;SDS011;4068;42.158;24.732;2023-05-29T01:34:00;9.73;;;5.88;;
8050;SDS011;4068;42.158;24.732;2023-05-29T01:36:26;8.77;;;5.00;;
8050;SDS011;4068;42.158;24.732;2023-05-29T01:38:53;10.48;;;4.88;;
8050;SDS011;4068;42.158;24.732;2023-05-29T01:41:20;10.20;;;5.28;;
8050;SDS011;4068;42.158;24.732;2023-05-29T01:43:46;6.00;;;4.82;;
8050;SDS011;4068;42.158;24.732;2023-05-29T01:46:13;9.35;;;5.38;;
8050;SDS011;4068;42.158;24.732;2023-05-29T01:48:40;10.65;;;5.15;;
8050;SDS011;4068;42.158;24.732;2023-05-29T01:51:07;8.63;;;5.32;;
8050;SDS011;4068;42.158;24.732;2023-05-29T01:53:33;7.63;;;4.80;;
8050;SDS011;4068;42.158;24.732;2023-05-29T01:55:58;7.95;;;5.60;;
8050;SDS011;4068;42.158;24.732;2023-05-29T01:58:25;10.70;;;5.22;;
8050;SDS011;4068;42.158;24.732;2023-05-29T02:00:53;14.13;;;5.70;;
8050;SDS011;4068;42.158;24.732;2023-05-29T02:03:20;7.72;;;4.97;;
8050;SDS011;4068;42.158;24.732;2023-05-29T02:05:46;9.13;;;5.32;;
8050;SDS011;4068;42.158;24.732;2023-05-29T02:08:11;5.72;;;4.70;;
8050;SDS011;4068;42.158;24.732;2023-05-29T02:10:37;9.75;;;4.75;;
8050;SDS011;4068;42.158;24.732;2023-05-29T02:13:02;7.97;;;4.70;;
8050;SDS011;4068;42.158;24.732;2023-05-29T02:15:28;8.18;;;5.07;;
8050;SDS011;4068;42.158;24.732;2023-05-29T02:17:53;16.23;;;5.40;;
8050;SDS011;4068;42.158;24.732;2023-05-29T02:20:18;9.55;;;5.20;;
8050;SDS011;4068;42.158;24.732;2023-05-29T02:22:44;8.27;;;4.97;;
8050;SDS011;4068;42.158;24.732;2023-05-29T02:25:10;8.50;;;5.30;;
8050;SDS011;4068;42.158;24.732;2023-05-29T02:27:36;13.13;;;5.45;;
8050;SDS011;4068;42.158;24.732;2023-05-29T02:30:01;10.95;;;5.20;;
8050;SDS011;4068;42.158;24.732;2023-05-29T02:32:27;9.60;;;5.72;;
8050;SDS011;4068;42.158;24.732;2023-05-29T02:34:53;15.88;;;6.15;;
8050;SDS011;4068;42.158;24.732;2023-05-29T02:37:19;6.07;;;4.93;;
8050;SDS011;4068;42.158;24.732;2023-05-29T02:39:44;10.23;;;4.78;;
8050;SDS011;4068;42.158;24.732;2023-05-29T02:42:10;6.30;;;5.40;;
8050;SDS011;4068;42.158;24.732;2023-05-29T02:44:35;9.43;;;5.10;;
8050;SDS011;4068;42.158;24.732;2023-05-29T02:47:00;10.20;;;5.13;;
8050;SDS011;4068;42.158;24.732;2023-05-29T02:49:26;8.13;;;4.95;;
8050;SDS011;4068;42.158;24.732;2023-05-29T02:51:51;11.52;;;4.93;;
8050;SDS011;4068;42.158;24.732;2023-05-29T02:54:23;7.32;;;4.55;;
8050;SDS011;4068;42.158;24.732;2023-05-29T02:56:49;14.93;;;5.75;;
8050;SDS011;4068;42.158;24.732;2023-05-29T02:59:15;9.45;;;4.82;;
8050;SDS011;4068;42.158;24.732;2023-05-29T03:01:40;10.20;;;4.88;;
8050;SDS011;4068;42.158;24.732;2023-05-29T03:04:06;14.48;;;6.07;;
8050;SDS011;4068;42.158;24.732;2023-05-29T03:06:31;9.13;;;5.05;;
8050;SDS011;4068;42.158;24.732;2023-05-29T03:08:57;11.13;;;4.72;;
8050;SDS011;4068;42.158;24.732;2023-05-29T03:11:24;9.43;;;5.20;;
8050;SDS011;4068;42.158;24.732;2023-05-29T03:13:50;7.85;;;5.00;;
8050;SDS011;4068;42.158;24.732;2023-05-29T03:16:15;8.45;;;4.95;;
8050;SDS011;4068;42.158;24.732;2023-05-29T03:18:41;8.20;;;4.82;;
8050;SDS011;4068;42.158;24.732;2023-05-29T03:21:06;6.75;;;4.50;;
8050;SDS011;4068;42.158;24.732;2023-05-29T03:23:32;9.30;;;4.55;;
8050;SDS011;4068;42.158;24.732;2023-05-29T03:25:58;9.43;;;4.22;;
8050;SDS011;4068;42.158;24.732;2023-05-29T03:28:23;7.53;;;4.05;;
8050;SDS011;4068;42.158;24.732;2023-05-29T03:30:49;6.75;;;4.80;;
8050;SDS011;4068;42.158;24.732;2023-05-29T03:33:15;6.85;;;4.40;;
8050;SDS011;4068;42.158;24.732;2023-05-29T03:35:40;9.13;;;5.13;;
8050;SDS011;4068;42.158;24.732;2023-05-29T03:38:05;9.15;;;5.07;;
8050;SDS011;4068;42.158;24.732;2023-05-29T03:40:31;9.55;;;4.82;;
8050;SDS011;4068;42.158;24.732;2023-05-29T03:42:56;8.32;;;4.70;;
8050;SDS011;4068;42.158;24.732;2023-05-29T03:45:22;10.90;;;5.25;;
8050;SDS011;4068;42.158;24.732;2023-05-29T03:47:47;8.93;;;4.97;;
8050;SDS011;4068;42.158;24.732;2023-05-29T03:50:12;23.10;;;7.47;;
8050;SDS011;4068;42.158;24.732;2023-05-29T03:52:40;10.48;;;5.35;;
8050;SDS011;4068;42.158;24.732;2023-05-29T03:55:08;20.73;;;5.93;;
8050;SDS011;4068;42.158;24.732;2023-05-29T03:57:38;10.40;;;5.55;;
8050;SDS011;4068;42.158;24.732;2023-05-29T04:00:09;8.43;;;5.25;;
8050;SDS011;4068;42.158;24.732;2023-05-29T04:02:37;8.63;;;4.85;;
8050;SDS011;4068;42.158;24.732;2023-05-29T04:05:04;19.17;;;5.25;;
8050;SDS011;4068;42.158;24.732;2023-05-29T04:07:34;10.52;;;5.70;;
8050;SDS011;4068;42.158;24.732;2023-05-29T04:10:02;13.93;;;5.75;;
8050;SDS011;4068;42.158;24.732;2023-05-29T04:12:27;11.45;;;5.13;;
8050;SDS011;4068;42.158;24.732;2023-05-29T04:14:53;15.15;;;5.93;;
8050;SDS011;4068;42.158;24.732;2023-05-29T04:17:18;9.50;;;5.10;;
8050;SDS011;4068;42.158;24.732;2023-05-29T04:19:44;10.50;;;4.57;;
8050;SDS011;4068;42.158;24.732;2023-05-29T04:22:10;13.35;;;4.45;;
8050;SDS011;4068;42.158;24.732;2023-05-29T04:24:35;13.23;;;4.95;;
8050;SDS011;4068;42.158;24.732;2023-05-29T04:27:01;9.48;;;5.05;;
8050;SDS011;4068;42.158;24.732;2023-05-29T04:29:27;15.15;;;5.35;;
8050;SDS011;4068;42.158;24.732;2023-05-29T04:31:53;5.38;;;4.30;;
8050;SDS011;4068;42.158;24.732;2023-05-29T04:34:20;8.70;;;5.13;;
8050;SDS011;4068;42.158;24.732;2023-05-29T04:36:47;9.13;;;4.97;;
8050;SDS011;4068;42.158;24.732;2023-05-29T04:39:13;14.18;;;6.28;;
8050;SDS011;4068;42.158;24.732;2023-05-29T04:41:42;12.73;;;5.25;;
8050;SDS011;4068;42.158;24.732;2023-05-29T04:44:07;9.00;;;4.80;;
8050;SDS011;4068;42.158;24.732;2023-05-29T04:46:36;8.73;;;4.65;;
8050;SDS011;4068;42.158;24.732;2023-05-29T04:49:03;12.95;;;5.05;;
8050;SDS011;4068;42.158;24.732;2023-05-29T04:51:29;11.63;;;4.70;;
8050;SDS011;4068;42.158;24.732;2023-05-29T04:53:55;14.13;;;4.53;;
8050;SDS011;4068;42.158;24.732;2023-05-29T04:56:21;19.42;;;6.15;;
8050;SDS011;4068;42.158;24.732;2023-05-29T04:58:47;11.63;;;5.57;;
8050;SDS011;4068;42.158;24.732;2023-05-29T05:01:12;6.20;;;4.75;;
8050;SDS011;4068;42.158;24.732;2023-05-29T05:03:42;8.45;;;5.32;;
8050;SDS011;4068;42.158;24.732;2023-05-29T05:06:08;9.93;;;5.00;;
8050;SDS011;4068;42.158;24.732;2023-05-29T05:08:34;7.57;;;5.28;;
8050;SDS011;4068;42.158;24.732;2023-05-29T05:11:00;10.18;;;5.53;;
8050;SDS011;4068;42.158;24.732;2023-05-29T05:13:26;12.07;;;5.88;;
8050;SDS011;4068;42.158;24.732;2023-05-29T05:15:52;6.20;;;4.70;;
8050;SDS011;4068;42.158;24.732;2023-05-29T05:18:17;6.93;;;5.07;;
8050;SDS011;4068;42.158;24.732;2023-05-29T05:20:43;7.28;;;5.22;;
8050;SDS011;4068;42.158;24.732;2023-05-29T05:23:09;10.75;;;5.30;;
8050;SDS011;4068;42.158;24.732;2023-05-29T05:25:35;11.57;;;4.65;;
8050;SDS011;4068;42.158;24.732;2023-05-29T05:28:01;7.80;;;5.03;;
8050;SDS011;4068;42.158;24.732;2023-05-29T05:30:28;12.77;;;6.68;;
8050;SDS011;4068;42.158;24.732;2023-05-29T05:32:53;10.02;;;5.32;;
8050;SDS011;4068;42.158;24.732;2023-05-29T05:35:19;10.00;;;4.50;;
8050;SDS011;4068;42.158;24.732;2023-05-29T05:37:45;11.85;;;5.15;;
8050;SDS011;4068;42.158;24.732;2023-05-29T05:40:10;9.48;;;5.00;;
8050;SDS011;4068;42.158;24.732;2023-05-29T05:42:36;11.75;;;5.00;;
8050;SDS011;4068;42.158;24.732;2023-05-29T05:45:02;6.20;;;4.40;;
8050;SDS011;4068;42.158;24.732;2023-05-29T05:47:28;8.75;;;4.38;;
8050;SDS011;4068;42.158;24.732;2023-05-29T05:49:53;14.07;;;5.40;;
8050;SDS011;4068;42.158;24.732;2023-05-29T05:52:19;6.38;;;4.90;;
8050;SDS011;4068;42.158;24.732;2023-05-29T05:54:45;10.05;;;5.57;;
8050;SDS011;4068;42.158;24.732;2023-05-29T05:57:10;6.90;;;4.38;;
8050;SDS011;4068;42.158;24.732;2023-05-29T05:59:36;10.00;;;5.35;;
8050;SDS011;4068;42.158;24.732;2023-05-29T06:02:01;10.00;;;5.70;;
8050;SDS011;4068;42.158;24.732;2023-05-29T06:04:28;9.45;;;4.95;;
8050;SDS011;4068;42.158;24.732;2023-05-29T06:06:54;11.48;;;4.82;;
8050;SDS011;4068;42.158;24.732;2023-05-29T06:09:20;10.82;;;5.13;;
8050;SDS011;4068;42.158;24.732;2023-05-29T06:11:46;12.05;;;5.43;;
8050;SDS011;4068;42.158;24.732;2023-05-29T06:14:13;12.48;;;4.88;;
8050;SDS011;4068;42.158;24.732;2023-05-29T06:16:38;6.97;;;4.80;;
8050;SDS011;4068;42.158;24.732;2023-05-29T06:19:04;7.03;;;4.05;;
8050;SDS011;4068;42.158;24.732;2023-05-29T06:21:30;10.50;;;4.80;;
8050;SDS011;4068;42.158;24.732;2023-05-29T06:23:56;8.77;;;4.20;;
8050;SDS011;4068;42.158;24.732;2023-05-29T06:26:22;8.45;;;4.20;;
8050;SDS011;4068;42.158;24.732;2023-05-29T06:28:49;6.85;;;4.50;;
8050;SDS011;4068;42.158;24.732;2023-05-29T06:31:15;10.98;;;4.10;;
8050;SDS011;4068;42.158;24.732;2023-05-29T06:33:40;7.50;;;3.92;;
8050;SDS011;4068;42.158;24.732;2023-05-29T06:36:06;8.20;;;4.57;;
8050;SDS011;4068;42.158;24.732;2023-05-29T06:38:31;12.27;;;4.25;;
8050;SDS011;4068;42.158;24.732;2023-05-29T06:40:57;6.57;;;4.13;;
8050;SDS011;4068;42.158;24.732;2023-05-29T06:43:22;7.25;;;4.18;;
8050;SDS011;4068;42.158;24.732;2023-05-29T06:45:48;5.75;;;3.65;;
8050;SDS011;4068;42.158;24.732;2023-05-29T06:48:13;8.55;;;3.90;;
8050;SDS011;4068;42.158;24.732;2023-05-29T06:50:39;7.32;;;4.47;;
8050;SDS011;4068;42.158;24.732;2023-05-29T06:53:04;4.97;;;3.35;;
8050;SDS011;4068;42.158;24.732;2023-05-29T06:55:30;6.28;;;3.70;;
8050;SDS011;4068;42.158;24.732;2023-05-29T06:57:55;9.43;;;3.90;;
8050;SDS011;4068;42.158;24.732;2023-05-29T07:00:20;5.07;;;3.72;;
8050;SDS011;4068;42.158;24.732;2023-05-29T07:02:46;9.00;;;4.00;;
8050;SDS011;4068;42.158;24.732;2023-05-29T07:05:11;8.65;;;3.90;;
8050;SDS011;4068;42.158;24.732;2023-05-29T07:07:37;8.15;;;4.10;;
8050;SDS011;4068;42.158;24.732;2023-05-29T07:10:02;5.57;;;4.00;;
8050;SDS011;4068;42.158;24.732;2023-05-29T07:12:28;11.02;;;4.60;;
8050;SDS011;4068;42.158;24.732;2023-05-29T07:14:53;15.60;;;5.20;;
8050;SDS011;4068;42.158;24.732;2023-05-29T07:17:19;9.90;;;4.32;;
8050;SDS011;4068;42.158;24.732;2023-05-29T07:19:44;6.55;;;4.15;;
8050;SDS011;4068;42.158;24.732;2023-05-29T07:22:10;5.03;;;3.65;;
8050;SDS011;4068;42.158;24.732;2023-05-29T07:24:35;6.20;;;3.88;;
8050;SDS011;4068;42.158;24.732;2023-05-29T07:27:01;6.20;;;3.30;;
8050;SDS011;4068;42.158;24.732;2023-05-29T07:29:26;5.97;;;2.92;;
8050;SDS011;4068;42.158;24.732;2023-05-29T07:31:51;8.13;;;3.85;;
8050;SDS011;4068;42.158;24.732;2023-05-29T07:34:17;4.90;;;3.47;;
8050;SDS011;4068;42.158;24.732;2023-05-29T07:39:29;15.73;;;3.92;;
8050;SDS011;4068;42.158;24.732;2023-05-29T07:41:55;7.63;;;4.07;;
8050;SDS011;4068;42.158;24.732;2023-05-29T07:44:21;10.85;;;4.40;;
8050;SDS011;4068;42.158;24.732;2023-05-29T07:46:46;6.95;;;3.88;;
8050;SDS011;4068;42.158;24.732;2023-05-29T07:49:12;4.30;;;3.65;;
8050;SDS011;4068;42.158;24.732;2023-05-29T07:51:38;6.85;;;4.00;;
8050;SDS011;4068;42.158;24.732;2023-05-29T07:54:03;5.97;;;3.80;;
8050;SDS011;4068;42.158;24.732;2023-05-29T07:56:30;7.85;;;4.10;;
8050;SDS011;4068;42.158;24.732;2023-05-29T07:58:56;8.70;;;4.07;;
8050;SDS011;4068;42.158;24.732;2023-05-29T08:01:22;5.47;;;4.22;;
8050;SDS011;4068;42.158;24.732;2023-05-29T08:03:47;10.63;;;4.90;;
8050;SDS011;4068;42.158;24.732;2023-05-29T08:06:13;6.45;;;4.50;;
8050;SDS011;4068;42.158;24.732;2023-05-29T08:08:39;9.52;;;4.25;;
8050;SDS011;4068;42.158;24.732;2023-05-29T08:11:04;11.15;;;4.32;;
8050;SDS011;4068;42.158;24.732;2023-05-29T08:13:30;9.15;;;4.25;;
8050;SDS011;4068;42.158;24.732;2023-05-29T08:15:56;10.80;;;4.10;;
8050;SDS011;4068;42.158;24.732;2023-05-29T08:18:24;4.72;;;3.72;;
8050;SDS011;4068;42.158;24.732;2023-05-29T08:20:50;9.88;;;3.92;;
8050;SDS011;4068;42.158;24.732;2023-05-29T08:23:16;8.85;;;4.80;;
8050;SDS011;4068;42.158;24.732;2023-05-29T08:25:42;5.80;;;4.20;;
8050;SDS011;4068;42.158;24.732;2023-05-29T08:28:07;14.23;;;4.22;;
8050;SDS011;4068;42.158;24.732;2023-05-29T08:30:33;6.43;;;4.90;;
8050;SDS011;4068;42.158;24.732;2023-05-29T08:32:58;6.95;;;3.90;;
8050;SDS011;4068;42.158;24.732;2023-05-29T08:35:23;8.63;;;4.72;;
8050;SDS011;4068;42.158;24.732;2023-05-29T08:37:49;9.88;;;4.50;;
8050;SDS011;4068;42.158;24.732;2023-05-29T08:40:15;8.02;;;4.03;;
8050;SDS011;4068;42.158;24.732;2023-05-29T08:42:47;6.95;;;4.30;;
8050;SDS011;4068;42.158;24.732;2023-05-29T08:45:19;8.50;;;4.43;;
8050;SDS011;4068;42.158;24.732;2023-05-29T08:47:48;6.00;;;3.80;;
8050;SDS011;4068;42.158;24.732;2023-05-29T08:50:19;6.57;;;4.13;;
8050;SDS011;4068;42.158;24.732;2023-05-29T08:52:48;8.55;;;4.55;;
8050;SDS011;4068;42.158;24.732;2023-05-29T08:55:14;9.38;;;4.68;;
8050;SDS011;4068;42.158;24.732;2023-05-29T08:57:40;7.13;;;3.88;;
8050;SDS011;4068;42.158;24.732;2023-05-29T09:00:08;8.27;;;4.10;;
8050;SDS011;4068;42.158;24.732;2023-05-29T09:02:40;4.55;;;3.33;;
8050;SDS011;4068;42.158;24.732;2023-05-29T09:05:09;6.40;;;3.97;;
8050;SDS011;4068;42.158;24.732;2023-05-29T09:07:35;10.77;;;4.70;;
8050;SDS011;4068;42.158;24.732;2023-05-29T09:10:06;5.93;;;3.55;;
8050;SDS011;4068;42.158;24.732;2023-05-29T09:12:33;5.97;;;3.88;;
8050;SDS011;4068;42.158;24.732;2023-05-29T09:14:59;6.63;;;4.18;;
8050;SDS011;4068;42.158;24.732;2023-05-29T09:17:29;6.25;;;3.70;;
8050;SDS011;4068;42.158;24.732;2023-05-29T09:19:56;4.78;;;3.63;;
8050;SDS011;4068;42.158;24.732;2023-05-29T09:22:21;7.43;;;3.85;;
8050;SDS011;4068;42.158;24.732;2023-05-29T09:24:47;8.93;;;4.30;;
8050;SDS011;4068;42.158;24.732;2023-05-29T09:27:14;7.05;;;4.53;;
8050;SDS011;4068;42.158;24.732;2023-05-29T09:29:40;10.27;;;3.88;;
8050;SDS011;4068;42.158;24.732;2023-05-29T09:32:08;5.50;;;3.72;;
8050;SDS011;4068;42.158;24.732;2023-05-29T09:34:34;7.22;;;4.40;;
8050;SDS011;4068;42.158;24.732;2023-05-29T09:37:01;4.38;;;3.90;;
8050;SDS011;4068;42.158;24.732;2023-05-29T09:39:49;8.25;;;4.35;;
8050;SDS011;4068;42.158;24.732;2023-05-29T09:42:18;6.50;;;3.92;;
8050;SDS011;4068;42.158;24.732;2023-05-29T09:44:50;6.50;;;4.03;;
8050;SDS011;4068;42.158;24.732;2023-05-29T09:47:19;4.20;;;3.38;;
8050;SDS011;4068;42.158;24.732;2023-05-29T09:49:45;5.75;;;3.40;;
8050;SDS011;4068;42.158;24.732;2023-05-29T09:52:11;5.57;;;3.88;;
8050;SDS011;4068;42.158;24.732;2023-05-29T09:54:39;11.55;;;4.97;;
8050;SDS011;4068;42.158;24.732;2023-05-29T09:57:07;9.15;;;4.70;;
8050;SDS011;4068;42.158;24.732;2023-05-29T09:59:34;5.38;;;4.63;;
8050;SDS011;4068;42.158;24.732;2023-05-29T10:02:02;4.32;;;3.45;;
8050;SDS011;4068;42.158;24.732;2023-05-29T10:04:36;7.53;;;4.22;;
8050;SDS011;4068;42.158;24.732;2023-05-29T10:07:04;3.50;;;3.17;;
8050;SDS011;4068;42.158;24.732;2023-05-29T10:09:41;7.07;;;4.45;;
8050;SDS011;4068;42.158;24.732;2023-05-29T10:12:08;6.80;;;3.50;;
8050;SDS011;4068;42.158;24.732;2023-05-29T10:14:36;7.13;;;3.75;;
8050;SDS011;4068;42.158;24.732;2023-05-29T10:17:07;8.20;;;4.40;;
8050;SDS011;4068;42.158;24.732;2023-05-29T10:19:35;6.35;;;3.40;;
8050;SDS011;4068;42.158;24.732;2023-05-29T10:22:03;4.88;;;3.33;;
8050;SDS011;4068;42.158;24.732;2023-05-29T10:24:31;6.40;;;3.78;;
8050;SDS011;4068;42.158;24.732;2023-05-29T10:26:58;29.45;;;9.52;;
8050;SDS011;4068;42.158;24.732;2023-05-29T10:29:58;37.22;;;11.35;;
8050;SDS011;4068;42.158;24.732;2023-05-29T10:35:06;9.27;;;4.80;;
8050;SDS011;4068;42.158;24.732;2023-05-29T10:40:16;14.70;;;5.03;;
8050;SDS011;4068;42.158;24.732;2023-05-29T10:42:49;3.90;;;3.50;;
8050;SDS011;4068;42.158;24.732;2023-05-29T10:50:36;4.53;;;3.58;;
8050;SDS011;4068;42.158;24.732;2023-05-29T10:53:03;4.15;;;3.13;;
8050;SDS011;4068;42.158;24.732;2023-05-29T10:55:35;6.60;;;3.17;;
8050;SDS011;4068;42.158;24.732;2023-05-29T10:58:05;4.45;;;3.30;;
8050;SDS011;4068;42.158;24.732;2023-05-29T11:00:45;5.57;;;3.35;;
8050;SDS011;4068;42.158;24.732;2023-05-29T11:03:15;6.43;;;3.40;;
8050;SDS011;4068;42.158;24.732;2023-05-29T11:08:53;7.30;;;3.50;;
8050;SDS011;4068;42.158;24.732;2023-05-29T11:11:29;4.95;;;3.05;;
8050;SDS011;4068;42.158;24.732;2023-05-29T11:14:00;4.72;;;3.15;;
8050;SDS011;4068;42.158;24.732;2023-05-29T11:18:58;4.57;;;3.15;;
8050;SDS011;4068;42.158;24.732;2023-05-29T11:21:40;7.07;;;3.35;;
8050;SDS011;4068;42.158;24.732;2023-05-29T11:24:12;4.80;;;2.67;;
8050;SDS011;4068;42.158;24.732;2023-05-29T11:26:48;10.68;;;3.50;;
8050;SDS011;4068;42.158;24.732;2023-05-29T11:29:18;4.70;;;3.15;;
8050;SDS011;4068;42.158;24.732;2023-05-29T11:32:01;4.85;;;3.38;;
8050;SDS011;4068;42.158;24.732;2023-05-29T11:34:28;5.88;;;2.85;;
8050;SDS011;4068;42.158;24.732;2023-05-29T11:36:56;6.25;;;3.22;;
8050;SDS011;4068;42.158;24.732;2023-05-29T11:39:23;87.70;;;12.93;;
8050;SDS011;4068;42.158;24.732;2023-05-29T11:41:52;3.80;;;3.25;;
8050;SDS011;4068;42.158;24.732;2023-05-29T11:44:21;8.35;;;3.25;;
8050;SDS011;4068;42.158;24.732;2023-05-29T11:47:04;3.38;;;2.78;;
8050;SDS011;4068;42.158;24.732;2023-05-29T11:49:32;4.63;;;2.95;;
8050;SDS011;4068;42.158;24.732;2023-05-29T11:54:35;5.05;;;3.10;;
8050;SDS011;4068;42.158;24.732;2023-05-29T11:57:01;7.75;;;3.13;;
8050;SDS011;4068;42.158;24.732;2023-05-29T11:59:33;4.40;;;2.88;;
8050;SDS011;4068;42.158;24.732;2023-05-29T12:02:01;3.80;;;3.38;;
8050;SDS011;4068;42.158;24.732;2023-05-29T12:04:28;4.78;;;3.35;;
8050;SDS011;4068;42.158;24.732;2023-05-29T12:06:53;7.32;;;3.90;;
8050;SDS011;4068;42.158;24.732;2023-05-29T12:09:23;5.53;;;3.03;;
8050;SDS011;4068;42.158;24.732;2023-05-29T12:11:50;5.38;;;2.88;;
8050;SDS011;4068;42.158;24.732;2023-05-29T12:14:16;4.88;;;3.60;;
8050;SDS011;4068;42.158;24.732;2023-05-29T12:16:41;3.15;;;2.63;;
8050;SDS011;4068;42.158;24.732;2023-05-29T12:19:07;3.47;;;2.70;;
8050;SDS011;4068;42.158;24.732;2023-05-29T12:21:32;3.70;;;2.55;;
8050;SDS011;4068;42.158;24.732;2023-05-29T12:23:58;4.03;;;2.78;;
8050;SDS011;4068;42.158;24.732;2023-05-29T12:26:23;3.00;;;2.70;;
8050;SDS011;4068;42.158;24.732;2023-05-29T12:28:50;4.80;;;2.78;;
8050;SDS011;4068;42.158;24.732;2023-05-29T12:31:27;3.05;;;2.20;;
8050;SDS011;4068;42.158;24.732;2023-05-29T12:34:02;5.13;;;2.80;;
8050;SDS011;4068;42.158;24.732;2023-05-29T12:36:33;3.80;;;2.95;;
8050;SDS011;4068;42.158;24.732;2023-05-29T12:38:59;3.67;;;2.47;;
8050;SDS011;4068;42.158;24.732;2023-05-29T12:41:26;3.25;;;2.50;;
8050;SDS011;4068;42.158;24.732;2023-05-29T12:43:58;4.15;;;2.95;;
8050;SDS011;4068;42.158;24.732;2023-05-29T12:46:26;3.42;;;2.80;;
8050;SDS011;4068;42.158;24.732;2023-05-29T12:48:55;3.45;;;2.80;;
8050;SDS011;4068;42.158;24.732;2023-05-29T12:51:25;5.40;;;3.90;;
8050;SDS011;4068;42.158;24.732;2023-05-29T12:53:51;5.85;;;3.38;;
8050;SDS011;4068;42.158;24.732;2023-05-29T12:56:19;5.05;;;3.00;;
8050;SDS011;4068;42.158;24.732;2023-05-29T12:58:49;4.70;;;3.08;;
8050;SDS011;4068;42.158;24.732;2023-05-29T13:01:16;4.05;;;3.65;;
8050;SDS011;4068;42.158;24.732;2023-05-29T13:03:42;3.05;;;2.75;;
8050;SDS011;4068;42.158;24.732;2023-05-29T13:06:07;4.30;;;2.97;;
8050;SDS011;4068;42.158;24.732;2023-05-29T13:08:35;4.38;;;3.35;;
8050;SDS011;4068;42.158;24.732;2023-05-29T13:11:00;3.20;;;2.90;;
8050;SDS011;4068;42.158;24.732;2023-05-29T13:13:26;5.90;;;3.28;;
8050;SDS011;4068;42.158;24.732;2023-05-29T13:15:51;3.50;;;2.72;;
8050;SDS011;4068;42.158;24.732;2023-05-29T13:18:17;5.75;;;2.90;;
8050;SDS011;4068;42.158;24.732;2023-05-29T13:20:42;2.88;;;2.58;;
8050;SDS011;4068;42.158;24.732;2023-05-29T13:23:07;3.70;;;2.83;;
8050;SDS011;4068;42.158;24.732;2023-05-29T13:25:34;6.78;;;2.70;;
8050;SDS011;4068;42.158;24.732;2023-05-29T13:27:59;4.85;;;3.20;;
8050;SDS011;4068;42.158;24.732;2023-05-29T13:30:25;3.45;;;2.50;;
8050;SDS011;4068;42.158;24.732;2023-05-29T13:32:52;4.90;;;2.90;;
8050;SDS011;4068;42.158;24.732;2023-05-29T13:35:18;4.13;;;2.70;;
8050;SDS011;4068;42.158;24.732;2023-05-29T13:37:44;8.57;;;2.83;;
8050;SDS011;4068;42.158;24.732;2023-05-29T13:40:10;5.78;;;3.10;;
8050;SDS011;4068;42.158;24.732;2023-05-29T13:42:37;3.75;;;2.85;;
8050;SDS011;4068;42.158;24.732;2023-05-29T13:45:04;5.78;;;2.60;;
8050;SDS011;4068;42.158;24.732;2023-05-29T13:47:31;3.67;;;2.92;;
8050;SDS011;4068;42.158;24.732;2023-05-29T13:49:57;3.88;;;2.00;;
8050;SDS011;4068;42.158;24.732;2023-05-29T13:52:23;4.28;;;2.30;;
8050;SDS011;4068;42.158;24.732;2023-05-29T13:54:49;3.13;;;2.50;;
8050;SDS011;4068;42.158;24.732;2023-05-29T13:57:15;3.45;;;2.50;;
8050;SDS011;4068;42.158;24.732;2023-05-29T13:59:40;9.82;;;2.83;;
8050;SDS011;4068;42.158;24.732;2023-05-29T14:02:06;5.07;;;2.50;;
8050;SDS011;4068;42.158;24.732;2023-05-29T14:04:33;6.60;;;2.92;;
8050;SDS011;4068;42.158;24.732;2023-05-29T14:06:58;8.20;;;2.75;;
8050;SDS011;4068;42.158;24.732;2023-05-29T14:09:24;7.28;;;3.30;;
8050;SDS011;4068;42.158;24.732;2023-05-29T14:11:55;6.18;;;3.63;;
8050;SDS011;4068;42.158;24.732;2023-05-29T14:14:22;7.55;;;3.92;;
8050;SDS011;4068;42.158;24.732;2023-05-29T14:16:48;5.93;;;3.72;;
8050;SDS011;4068;42.158;24.732;2023-05-29T14:19:15;6.35;;;4.03;;
8050;SDS011;4068;42.158;24.732;2023-05-29T14:21:40;7.03;;;3.78;;
8050;SDS011;4068;42.158;24.732;2023-05-29T14:24:06;5.57;;;4.05;;
8050;SDS011;4068;42.158;24.732;2023-05-29T14:26:32;8.52;;;4.47;;
8050;SDS011;4068;42.158;24.732;2023-05-29T14:28:58;4.95;;;4.25;;
8050;SDS011;4068;42.158;24.732;2023-05-29T14:31:23;6.43;;;4.20;;
8050;SDS011;4068;42.158;24.732;2023-05-29T14:33:48;7.55;;;4.65;;
8050;SDS011;4068;42.158;24.732;2023-05-29T14:36:14;9.15;;;4.30;;
8050;SDS011;4068;42.158;24.732;2023-05-29T14:38:39;7.50;;;4.05;;
8050;SDS011;4068;42.158;24.732;2023-05-29T14:41:05;6.88;;;4.78;;
8050;SDS011;4068;42.158;24.732;2023-05-29T14:43:31;7.40;;;4.95;;
8050;SDS011;4068;42.158;24.732;2023-05-29T14:45:57;11.63;;;4.88;;
8050;SDS011;4068;42.158;24.732;2023-05-29T14:48:22;8.52;;;4.55;;
8050;SDS011;4068;42.158;24.732;2023-05-29T14:50:48;8.90;;;4.45;;
8050;SDS011;4068;42.158;24.732;2023-05-29T14:53:13;9.25;;;5.32;;
8050;SDS011;4068;42.158;24.732;2023-05-29T14:55:39;6.20;;;4.20;;
8050;SDS011;4068;42.158;24.732;2023-05-29T14:58:04;9.70;;;5.18;;
8050;SDS011;4068;42.158;24.732;2023-05-29T15:00:30;7.30;;;5.22;;
8050;SDS011;4068;42.158;24.732;2023-05-29T15:02:56;14.73;;;5.47;;
8050;SDS011;4068;42.158;24.732;2023-05-29T15:05:24;8.07;;;5.15;;
8050;SDS011;4068;42.158;24.732;2023-05-29T15:07:53;8.15;;;5.45;;
8050;SDS011;4068;42.158;24.732;2023-05-29T15:10:21;6.93;;;5.50;;
8050;SDS011;4068;42.158;24.732;2023-05-29T15:12:49;9.68;;;6.40;;
8050;SDS011;4068;42.158;24.732;2023-05-29T15:15:15;8.38;;;6.07;;
8050;SDS011;4068;42.158;24.732;2023-05-29T15:17:40;10.80;;;6.40;;
8050;SDS011;4068;42.158;24.732;2023-05-29T15:20:07;10.35;;;6.70;;
8050;SDS011;4068;42.158;24.732;2023-05-29T15:22:33;9.38;;;6.03;;
8050;SDS011;4068;42.158;24.732;2023-05-29T15:24:58;9.57;;;6.30;;
8050;SDS011;4068;42.158;24.732;2023-05-29T15:27:24;11.48;;;6.95;;
8050;SDS011;4068;42.158;24.732;2023-05-29T15:29:53;17.35;;;8.75;;
8050;SDS011;4068;42.158;24.732;2023-05-29T15:32:18;22.02;;;10.65;;